createdAt,value
2022-11-08T06:01:15.568Z,9.75
2022-11-08T06:06:36.421Z,9.71
2022-11-08T06:11:57.518Z,9.71
2022-11-08T06:17:18.742Z,9.66
2022-11-08T06:22:39.843Z,9.66
2022-11-08T06:28:00.945Z,9.69
2022-11-08T06:33:22.159Z,9.73
2022-11-08T06:38:42.809Z,9.78
2022-11-08T06:44:03.762Z,9.85
2022-11-08T06:49:24.827Z,9.87
2022-11-08T06:54:45.709Z,9.84
2022-11-08T07:00:07.095Z,9.90
2022-11-08T07:05:30.074Z,10.00
2022-11-08T07:10:51.691Z,10.19
2022-11-08T07:16:12.574Z,10.26
2022-11-08T07:21:33.342Z,10.26
2022-11-08T07:26:54.176Z,10.31
2022-11-08T07:32:14.858Z,10.57
2022-11-08T07:37:35.637Z,10.89
2022-11-08T07:43:15.225Z,10.97
2022-11-08T07:48:37.320Z,11.37
2022-11-08T07:54:02.795Z,11.81
2022-11-08T07:59:24.209Z,12.02
2022-11-08T08:04:44.951Z,12.29
2022-11-08T08:10:06.441Z,12.63
2022-11-08T08:15:27.487Z,13.07
2022-11-08T08:20:48.396Z,13.46
2022-11-08T08:26:09.410Z,13.91
2022-11-08T08:31:30.529Z,14.22
2022-11-08T08:36:51.311Z,14.97
2022-11-08T08:42:12.419Z,15.63
2022-11-08T08:47:33.058Z,16.11
2022-11-08T08:52:59.113Z,16.16
2022-11-08T08:58:21.627Z,16.14
2022-11-08T09:03:42.426Z,16.54
2022-11-08T09:09:09.600Z,17.05
2022-11-08T09:14:30.520Z,17.05
2022-11-08T09:19:56.844Z,16.78
2022-11-08T09:25:18.706Z,16.46
2022-11-08T09:30:39.546Z,16.12
2022-11-08T09:36:01.531Z,16.16
2022-11-08T09:41:28.655Z,16.26
2022-11-08T09:46:55.538Z,16.00
2022-11-08T09:52:25.353Z,16.19
2022-11-08T09:58:11.090Z,16.13
2022-11-08T10:03:31.868Z,16.10
2022-11-08T10:08:52.715Z,15.93
2022-11-08T10:14:49.036Z,16.25
2022-11-08T10:20:30.964Z,16.44
2022-11-08T10:26:00.189Z,16.52
2022-11-08T10:31:21.372Z,16.88
2022-11-08T10:36:47.084Z,17.18
2022-11-08T10:42:07.718Z,17.06
2022-11-08T10:47:32.646Z,17.09
2022-11-08T10:53:01.866Z,16.95
2022-11-08T10:58:39.375Z,16.78
2022-11-08T11:04:23.428Z,16.77
2022-11-08T11:09:44.436Z,16.97
2022-11-08T11:15:13.998Z,16.84
2022-11-08T11:20:35.394Z,17.09
2022-11-08T11:25:56.243Z,17.21
2022-11-08T11:31:17.128Z,17.34
2022-11-08T11:36:38.206Z,17.53
2022-11-08T11:42:31.015Z,17.49
2022-11-08T11:47:56.565Z,17.80
2022-11-08T11:53:33.139Z,17.92
2022-11-08T11:59:21.657Z,17.66
2022-11-08T12:04:42.762Z,17.60
2022-11-08T12:10:03.563Z,17.84
2022-11-08T12:15:53.577Z,17.65
2022-11-08T12:21:29.140Z,17.31
2022-11-08T12:27:32.933Z,17.35
2022-11-08T12:33:07.859Z,17.77
2022-11-08T12:38:47.091Z,17.85
2022-11-08T12:44:13.883Z,17.69
2022-11-08T12:49:58.073Z,17.26
2022-11-08T12:55:35.086Z,17.06
2022-11-08T13:01:02.141Z,17.35
2022-11-08T13:06:33.770Z,17.41
2022-11-08T13:12:07.108Z,17.67
2022-11-08T13:17:29.587Z,17.61
2022-11-08T13:22:58.264Z,17.75
2022-11-08T13:28:55.126Z,17.53
2022-11-08T13:34:40.588Z,17.35
2022-11-08T13:40:31.724Z,17.42
2022-11-08T13:45:53.506Z,17.16
2022-11-08T13:51:30.668Z,16.79
